NVT weather

Ministro Victor Konder International Airport
Navegantes, Santa Catarina, Brazil

Public forecast

Using degrees Celsius for public forecast. Weather courtesy of forecast.io.

Current aviation weather report (METAR) for Ministro Victor Konder International Airport

Retrieved 2020/08/05 14:45 UTC (2 hours ago):

SBNF 051445Z 07011KT 9999 SCT020 21/17 Q1028

Aviation forecast (TAF) for Ministro Victor Konder International Airport

Retrieved 2020/08/05 12:00 UTC (4 hours ago):

TAF SBNF 050900Z 0512/0612 26010KT 6000 SCT004 BKN010 TX21/0516Z TN15/0607Z BECMG 0513/0515 05010KT CAVOK BECMG 0519/0521 03005KT BECMG 0523/0601 27005KT 9999 BKN010 BECMG 0605/0606 FEW010 BECMG 0609/0611 6000 SCT004 BKN010 RMK PDY